createdAt,value
2024-01-09T00:00:35.268Z,44.13
2024-01-09T00:03:37.081Z,43.11
2024-01-09T00:06:38.948Z,39.29
2024-01-09T00:09:40.697Z,42.16
2024-01-09T00:12:42.554Z,42.05
2024-01-09T00:15:44.509Z,43.15
2024-01-09T00:18:46.382Z,41.65
2024-01-09T00:21:50.965Z,43.52
2024-01-09T00:24:52.692Z,42.83
2024-01-09T00:27:54.474Z,43.94
2024-01-09T00:30:56.247Z,41.52
2024-01-09T00:33:58.212Z,41.21
2024-01-09T00:37:00.034Z,43.57
2024-01-09T00:40:02.294Z,44.58
2024-01-09T00:43:04.142Z,46.00
2024-01-09T00:46:05.960Z,44.21
2024-01-09T00:49:07.705Z,42.09
2024-01-09T00:52:09.534Z,42.20
2024-01-09T00:55:11.942Z,43.54
2024-01-09T00:58:13.622Z,44.70
2024-01-09T01:01:15.508Z,45.23
2024-01-09T01:04:18.520Z,41.82
2024-01-09T01:07:20.395Z,43.92
2024-01-09T01:10:22.198Z,43.96
2024-01-09T01:13:23.972Z,44.71
2024-01-09T01:16:25.747Z,43.69
2024-01-09T01:19:27.514Z,45.64
2024-01-09T01:22:29.295Z,46.02
2024-01-09T01:25:31.085Z,42.92
2024-01-09T01:28:32.880Z,42.55
2024-01-09T01:31:34.643Z,42.32
2024-01-09T01:34:36.970Z,41.82
2024-01-09T01:37:38.728Z,44.05
2024-01-09T01:40:40.519Z,43.35
2024-01-09T01:43:42.317Z,44.37
2024-01-09T01:46:45.299Z,42.01
2024-01-09T01:49:47.145Z,43.80
2024-01-09T01:52:48.961Z,40.63
2024-01-09T01:55:50.702Z,41.24
2024-01-09T01:58:52.773Z,44.34
2024-01-09T02:01:54.635Z,42.16
2024-01-09T02:04:56.613Z,42.95
2024-01-09T02:07:58.819Z,42.75
2024-01-09T02:11:00.435Z,44.55
2024-01-09T02:14:02.184Z,44.63
2024-01-09T02:17:04.230Z,43.97
2024-01-09T02:20:12.532Z,44.25
2024-01-09T02:23:14.273Z,44.11
2024-01-09T02:26:39.047Z,44.25
2024-01-09T02:29:50.400Z,41.77
2024-01-09T02:32:53.097Z,44.86
2024-01-09T02:35:55.010Z,44.06
2024-01-09T02:38:56.860Z,45.94
2024-01-09T02:41:58.671Z,45.98
2024-01-09T02:45:00.438Z,46.24
2024-01-09T02:48:02.324Z,46.89
2024-01-09T02:51:04.313Z,45.65
2024-01-09T02:54:06.069Z,46.41
2024-01-09T02:57:07.829Z,46.80
2024-01-09T03:00:10.283Z,46.79
2024-01-09T03:03:12.231Z,46.34
2024-01-09T03:06:14.250Z,47.22
2024-01-09T03:09:17.253Z,47.86
2024-01-09T03:12:18.958Z,48.24
2024-01-09T03:15:20.723Z,47.19
2024-01-09T03:18:22.575Z,48.65
2024-01-09T03:21:24.485Z,47.41
2024-01-09T03:24:26.314Z,48.60
2024-01-09T03:27:27.995Z,48.64
2024-01-09T03:30:31.016Z,48.85
2024-01-09T03:33:33.148Z,47.67
2024-01-09T03:36:35.216Z,48.56
2024-01-09T03:39:37.353Z,48.71
2024-01-09T03:42:39.040Z,48.49
2024-01-09T03:45:41.020Z,48.24
2024-01-09T03:48:42.805Z,49.00
2024-01-09T03:51:44.617Z,48.65
2024-01-09T03:54:46.308Z,47.13
2024-01-09T03:57:48.048Z,46.82
2024-01-09T04:00:50.225Z,48.69
2024-01-09T04:03:52.125Z,48.91
2024-01-09T04:06:53.785Z,47.74
2024-01-09T04:09:55.524Z,49.06
2024-01-09T04:12:57.244Z,49.12
2024-01-09T04:15:58.976Z,49.45
2024-01-09T04:19:00.996Z,48.12
2024-01-09T04:22:03.067Z,48.85
2024-01-09T04:25:05.228Z,49.32
2024-01-09T04:28:07.153Z,48.97
2024-01-09T04:31:08.936Z,48.41
2024-01-09T04:34:10.756Z,49.08
2024-01-09T04:37:12.544Z,48.29
2024-01-09T04:40:14.387Z,48.46
2024-01-09T04:43:16.092Z,48.75
2024-01-09T04:46:17.819Z,48.01
2024-01-09T04:49:19.607Z,48.88
2024-01-09T04:52:21.307Z,48.66
2024-01-09T04:55:22.984Z,48.67
2024-01-09T04:58:24.749Z,48.53
2024-01-09T05:01:26.762Z,48.65
2024-01-09T05:04:31.553Z,47.83
2024-01-09T05:07:33.299Z,48.58
2024-01-09T05:10:34.996Z,48.50
2024-01-09T05:13:37.131Z,48.62
2024-01-09T05:16:39.935Z,48.02
2024-01-09T05:19:41.934Z,47.89
2024-01-09T05:27:05.595Z,48.45
2024-01-09T05:30:09.360Z,48.97
2024-01-09T05:33:11.544Z,49.14
2024-01-09T05:36:14.966Z,48.42
2024-01-09T05:39:16.665Z,48.08
2024-01-09T05:42:18.312Z,47.08
2024-01-09T05:45:20.040Z,48.21
2024-01-09T05:48:21.930Z,47.86
2024-01-09T05:51:23.771Z,48.04
2024-01-09T05:54:25.516Z,48.43
2024-01-09T05:57:27.303Z,48.02
2024-01-09T06:00:29.015Z,47.35
2024-01-09T06:03:30.743Z,47.72
2024-01-09T06:06:32.922Z,48.02
2024-01-09T06:09:34.762Z,47.93
2024-01-09T06:12:36.662Z,48.70
2024-01-09T06:15:38.601Z,48.98
2024-01-09T06:18:41.225Z,46.30
2024-01-09T06:21:43.162Z,46.65
2024-01-09T06:24:44.919Z,46.95
2024-01-09T06:27:46.661Z,45.67
2024-01-09T06:30:48.446Z,44.76
2024-01-09T06:33:51.343Z,44.66
2024-01-09T06:36:53.543Z,44.29
2024-01-09T06:39:55.252Z,45.98
2024-01-09T06:42:57.123Z,45.72
2024-01-09T06:45:59.163Z,46.56
2024-01-09T06:49:01.026Z,45.69
2024-01-09T06:52:04.310Z,47.94
2024-01-09T06:55:06.421Z,47.75
2024-01-09T06:58:09.230Z,47.87
2024-01-09T07:01:14.187Z,47.11
2024-01-09T07:04:17.156Z,46.18
2024-01-09T07:07:19.178Z,46.52
2024-01-09T07:10:22.549Z,47.00
2024-01-09T07:13:24.816Z,45.45
2024-01-09T07:16:26.518Z,47.18
2024-01-09T07:19:28.272Z,46.71
2024-01-09T07:22:30.035Z,47.76
2024-01-09T07:25:31.897Z,47.51
2024-01-09T07:28:33.668Z,47.08
2024-01-09T07:31:35.394Z,46.35
2024-01-09T07:34:37.189Z,46.49
2024-01-09T07:37:39.120Z,46.61
2024-01-09T07:40:40.866Z,46.27
2024-01-09T07:43:42.654Z,46.99
2024-01-09T07:46:44.453Z,46.05
2024-01-09T07:49:46.286Z,45.57
2024-01-09T07:52:48.095Z,45.61
2024-01-09T07:55:49.838Z,46.42
2024-01-09T07:58:51.509Z,44.34
2024-01-09T08:01:56.566Z,44.58
2024-01-09T08:04:59.036Z,43.09
2024-01-09T08:08:00.840Z,44.05
2024-01-09T08:11:02.619Z,44.35
2024-01-09T08:14:04.358Z,42.98
2024-01-09T08:17:06.482Z,43.35
2024-01-09T08:20:08.437Z,44.79
2024-01-09T08:23:11.231Z,44.19
2024-01-09T08:26:14.306Z,43.04
2024-01-09T08:29:19.138Z,41.31
2024-01-09T08:32:21.027Z,43.24
2024-01-09T08:35:22.879Z,42.45
2024-01-09T08:38:24.685Z,43.50
2024-01-09T08:41:26.610Z,43.48
2024-01-09T08:44:28.453Z,43.90
2024-01-09T08:47:30.271Z,42.37
2024-01-09T08:50:32.140Z,43.96
2024-01-09T08:53:34.227Z,41.91
2024-01-09T08:56:36.526Z,43.47
2024-01-09T08:59:38.405Z,42.52
2024-01-09T09:02:40.192Z,42.41
2024-01-09T09:05:42.332Z,43.11
2024-01-09T09:08:45.275Z,41.77
2024-01-09T09:11:47.048Z,41.13
2024-01-09T09:14:49.042Z,41.68
2024-01-09T09:17:50.865Z,40.23
2024-01-09T09:20:52.698Z,41.60
2024-01-09T09:23:54.607Z,41.22
2024-01-09T09:26:56.493Z,40.82
2024-01-09T09:29:58.284Z,39.24
2024-01-09T09:33:00.281Z,38.54
2024-01-09T09:36:08.582Z,39.10
2024-01-09T09:39:11.806Z,39.57
2024-01-09T09:42:13.636Z,38.69
2024-01-09T09:45:15.680Z,39.61
2024-01-09T09:48:21.233Z,40.64
2024-01-09T09:51:27.225Z,41.10
2024-01-09T09:54:32.558Z,41.34
2024-01-09T09:57:34.300Z,40.62
2024-01-09T10:00:36.195Z,40.73
2024-01-09T10:03:45.122Z,39.35
2024-01-09T10:06:47.816Z,37.78
2024-01-09T10:09:54.758Z,39.71
2024-01-09T10:12:58.639Z,39.02
2024-01-09T10:16:02.543Z,38.25
2024-01-09T10:19:04.512Z,38.00
2024-01-09T10:22:06.539Z,38.80
2024-01-09T10:25:12.719Z,38.89
2024-01-09T10:28:18.222Z,38.69
2024-01-09T10:31:20.445Z,37.83
2024-01-09T10:34:22.459Z,36.89
2024-01-09T10:37:25.237Z,36.86
2024-01-09T10:40:27.388Z,36.51
2024-01-09T10:43:30.330Z,36.80
2024-01-09T10:46:34.717Z,37.15
2024-01-09T10:49:40.556Z,35.52
2024-01-09T10:52:43.687Z,31.63
2024-01-09T10:55:46.193Z,31.39
2024-01-09T10:58:49.508Z,32.06
2024-01-09T11:01:52.352Z,32.62
2024-01-09T11:04:54.097Z,31.76
2024-01-09T11:07:56.632Z,32.18
2024-01-09T11:10:58.888Z,31.39
2024-01-09T11:14:07.712Z,32.73
2024-01-09T11:17:10.757Z,31.91
2024-01-09T11:20:13.286Z,33.04
2024-01-09T11:23:15.085Z,33.50
2024-01-09T11:26:16.934Z,32.34
2024-01-09T11:29:51.678Z,33.63
2024-01-09T11:32:54.134Z,32.32
2024-01-09T11:35:56.356Z,32.63
2024-01-09T11:38:58.615Z,30.94
2024-01-09T11:42:00.486Z,31.37
2024-01-09T11:45:10.909Z,32.56
2024-01-09T11:48:15.211Z,31.96
2024-01-09T11:51:17.950Z,30.81
2024-01-09T11:54:20.716Z,31.94
2024-01-09T11:57:22.891Z,30.95
2024-01-09T12:00:24.795Z,30.84
2024-01-09T12:03:26.621Z,30.78
2024-01-09T12:06:30.406Z,30.11
2024-01-09T12:09:32.282Z,32.39
2024-01-09T12:12:34.106Z,32.57
2024-01-09T12:15:35.777Z,30.43
2024-01-09T12:18:52.153Z,32.01
2024-01-09T12:21:54.072Z,32.18
2024-01-09T12:24:57.027Z,32.60
2024-01-09T12:28:00.961Z,32.16
2024-01-09T12:31:03.346Z,31.90
2024-01-09T12:34:06.486Z,33.15
2024-01-09T12:37:10.243Z,32.40
2024-01-09T12:40:17.183Z,32.28
2024-01-09T12:43:20.495Z,32.15
2024-01-09T12:46:22.984Z,32.72
2024-01-09T12:49:24.786Z,32.72
2024-01-09T12:52:26.692Z,31.34
2024-01-09T12:55:30.028Z,32.42
2024-01-09T12:58:33.195Z,32.08
2024-01-09T13:01:34.971Z,32.01
2024-01-09T13:04:36.900Z,32.22
2024-01-09T13:07:38.619Z,33.07
2024-01-09T13:10:41.734Z,32.38
2024-01-09T13:13:43.907Z,33.28
2024-01-09T13:16:46.415Z,32.55
2024-01-09T13:19:51.288Z,33.71
2024-01-09T13:26:02.504Z,32.39
2024-01-09T13:30:43.519Z,33.97
2024-01-09T13:32:29.035Z,32.22
2024-01-09T13:35:33.525Z,32.67
2024-01-09T13:38:38.760Z,33.56
2024-01-09T13:41:40.497Z,33.33
2024-01-09T13:44:42.957Z,34.20
2024-01-09T13:47:44.761Z,34.68
2024-01-09T13:51:49.147Z,34.82
2024-01-09T13:54:09.337Z,35.03
2024-01-09T13:57:13.342Z,35.31
2024-01-09T14:00:17.657Z,35.80
2024-01-09T14:03:19.842Z,35.24
2024-01-09T14:06:21.795Z,35.72
2024-01-09T14:09:23.879Z,35.76
2024-01-09T14:12:26.131Z,35.21
2024-01-09T14:15:28.195Z,36.35
2024-01-09T14:18:30.334Z,36.65
2024-01-09T14:21:35.193Z,36.61
2024-01-09T14:24:37.927Z,36.13
2024-01-09T14:27:39.659Z,36.57
2024-01-09T14:30:41.386Z,36.32
2024-01-09T14:33:43.500Z,36.71
2024-01-09T14:36:45.242Z,37.39
2024-01-09T14:39:47.501Z,38.03
2024-01-09T14:42:49.602Z,38.40
2024-01-09T14:45:51.316Z,39.08
2024-01-09T14:48:53.242Z,40.06
2024-01-09T14:51:55.200Z,39.59
2024-01-09T14:54:57.003Z,41.22
2024-01-09T14:57:58.841Z,42.88
2024-01-09T15:01:00.937Z,43.84
2024-01-09T15:04:02.870Z,44.92
2024-01-09T15:07:04.649Z,46.04
2024-01-09T15:10:06.805Z,47.07
2024-01-09T15:13:08.616Z,48.22
2024-01-09T15:16:10.677Z,49.08
2024-01-09T15:19:12.738Z,50.13
2024-01-09T15:22:17.269Z,51.03
2024-01-09T15:25:19.099Z,51.86
2024-01-09T15:28:21.620Z,52.77
2024-01-09T15:31:23.711Z,53.83
2024-01-09T15:34:25.835Z,54.78
2024-01-09T15:37:27.973Z,55.32
2024-01-09T15:40:29.739Z,57.31
2024-01-09T15:43:33.726Z,58.35
2024-01-09T15:46:35.745Z,58.87
2024-01-09T15:49:40.616Z,59.43
2024-01-09T15:52:42.584Z,60.16
2024-01-09T15:55:44.479Z,60.40
2024-01-09T15:58:46.301Z,61.21
2024-01-09T16:01:48.024Z,62.54
2024-01-09T16:04:50.157Z,62.67
2024-01-09T16:07:54.990Z,63.38
2024-01-09T16:10:56.915Z,62.94
2024-01-09T16:13:58.762Z,62.93
2024-01-09T16:17:00.554Z,62.61
2024-01-09T16:20:02.965Z,61.39
2024-01-09T16:23:05.125Z,61.62
2024-01-09T16:26:09.610Z,63.65
2024-01-09T16:29:12.065Z,64.56
2024-01-09T16:32:14.055Z,66.07
2024-01-09T16:35:16.233Z,67.70
2024-01-09T16:38:18.007Z,68.31
2024-01-09T16:41:20.229Z,66.18
2024-01-09T16:44:23.365Z,68.36
2024-01-09T16:47:25.193Z,67.43
2024-01-09T16:50:27.091Z,65.37
2024-01-09T16:53:29.275Z,63.32
2024-01-09T16:56:31.418Z,62.69
2024-01-09T16:59:33.151Z,62.03
2024-01-09T17:02:35.265Z,63.32
2024-01-09T17:05:38.203Z,63.99
2024-01-09T17:08:40.312Z,64.05
2024-01-09T17:11:42.597Z,64.28
2024-01-09T17:14:47.318Z,64.22
2024-01-09T17:17:49.515Z,64.23
2024-01-09T17:20:51.316Z,62.71
2024-01-09T17:23:53.136Z,57.51
2024-01-09T17:26:54.985Z,58.02
2024-01-09T17:29:57.055Z,59.19
2024-01-09T17:32:59.147Z,59.19
2024-01-09T17:36:01.206Z,58.98
2024-01-09T17:39:03.297Z,58.10
2024-01-09T17:42:05.349Z,58.06
2024-01-09T17:45:09.312Z,59.50
2024-01-09T17:48:11.968Z,60.96
2024-01-09T17:51:14.142Z,61.24
2024-01-09T17:54:15.917Z,62.66
2024-01-09T17:57:17.888Z,63.66
2024-01-09T18:00:20.131Z,64.02
2024-01-09T18:03:22.088Z,64.34
2024-01-09T18:06:24.005Z,65.12
2024-01-09T18:09:30.549Z,65.59
2024-01-09T18:12:34.407Z,66.76
2024-01-09T18:15:36.428Z,66.87
2024-01-09T18:18:38.614Z,67.16
2024-01-09T18:21:43.843Z,67.83
2024-01-09T18:24:45.752Z,67.67
2024-01-09T18:27:47.812Z,68.02
2024-01-09T18:30:49.536Z,69.07
2024-01-09T18:33:52.728Z,71.53
2024-01-09T18:36:54.793Z,71.87
2024-01-09T18:39:58.718Z,72.67
2024-01-09T18:43:00.725Z,73.10
2024-01-09T18:46:03.134Z,73.47
2024-01-09T18:49:05.212Z,73.70
2024-01-09T18:52:07.326Z,74.54
2024-01-09T18:55:09.576Z,75.07
2024-01-09T18:58:11.393Z,75.27
2024-01-09T19:01:13.252Z,75.72
2024-01-09T19:04:16.034Z,76.79
2024-01-09T19:07:17.984Z,76.54
2024-01-09T19:10:19.865Z,77.41
2024-01-09T19:13:21.743Z,78.04
2024-01-09T19:16:23.815Z,78.78
2024-01-09T19:19:26.113Z,78.57
2024-01-09T19:22:28.213Z,79.25
2024-01-09T19:25:30.469Z,79.67
2024-01-09T19:28:32.415Z,79.57
2024-01-09T19:31:34.902Z,80.66
2024-01-09T19:34:41.536Z,81.42
2024-01-09T19:37:44.880Z,80.79
2024-01-09T19:40:47.316Z,81.90
2024-01-09T19:43:49.300Z,83.17
2024-01-09T19:46:51.301Z,84.82
2024-01-09T19:49:53.447Z,85.10
2024-01-09T19:52:56.930Z,84.41
2024-01-09T19:55:59.355Z,84.45
2024-01-09T19:59:01.572Z,84.63
2024-01-09T20:02:03.826Z,86.54
2024-01-09T20:05:06.674Z,85.37
2024-01-09T20:08:09.250Z,86.41
2024-01-09T20:11:28.197Z,85.19
2024-01-09T20:14:30.316Z,85.61
2024-01-09T20:17:32.494Z,85.71
2024-01-09T20:20:34.718Z,85.30
2024-01-09T20:23:36.863Z,85.81
2024-01-09T20:26:39.326Z,85.64
2024-01-09T20:29:43.205Z,86.27
2024-01-09T20:32:45.168Z,86.37
2024-01-09T20:35:47.974Z,86.52
2024-01-09T20:38:52.800Z,87.01
2024-01-09T20:41:54.867Z,87.43
2024-01-09T20:44:57.068Z,87.73
2024-01-09T20:47:59.675Z,88.43
2024-01-09T20:51:05.051Z,88.48
2024-01-09T20:54:09.608Z,88.39
2024-01-09T20:57:11.561Z,88.92
2024-01-09T21:00:13.985Z,88.86
2024-01-09T21:03:16.501Z,88.53
2024-01-09T21:06:18.371Z,88.83
2024-01-09T21:09:20.346Z,89.37
2024-01-09T21:12:23.243Z,89.43
2024-01-09T21:15:25.257Z,89.69
2024-01-09T21:18:27.288Z,89.75
2024-01-09T21:21:29.306Z,89.83
2024-01-09T21:24:31.109Z,90.16
2024-01-09T21:27:35.259Z,90.81
2024-01-09T21:30:38.004Z,90.78
2024-01-09T21:33:40.021Z,91.00
2024-01-09T21:36:42.170Z,90.99
2024-01-09T21:39:44.457Z,91.28
2024-01-09T21:42:46.364Z,91.44
2024-01-09T21:45:48.200Z,91.73
2024-01-09T21:48:50.875Z,91.62
2024-01-09T21:51:52.816Z,91.87
2024-01-09T21:54:54.526Z,92.00
2024-01-09T21:57:56.410Z,92.25
2024-01-09T22:00:58.607Z,92.50
2024-01-09T22:04:00.547Z,92.48
2024-01-09T22:07:09.086Z,92.50
2024-01-09T22:10:12.337Z,92.73
2024-01-09T22:17:23.467Z,93.24
2024-01-09T22:20:25.323Z,93.33
2024-01-09T22:23:27.237Z,93.86
2024-01-09T22:26:28.970Z,93.98
2024-01-09T22:29:30.712Z,94.45
2024-01-09T22:32:32.751Z,94.88
2024-01-09T22:35:34.698Z,94.93
2024-01-09T22:38:36.630Z,94.87
2024-01-09T22:41:38.437Z,95.16
2024-01-09T22:44:40.207Z,94.94
2024-01-09T22:47:41.986Z,95.10
2024-01-09T22:50:46.002Z,95.06
2024-01-09T22:53:47.899Z,95.16
2024-01-09T22:56:49.641Z,95.04
2024-01-09T22:59:51.658Z,95.19
2024-01-09T23:02:57.414Z,95.22
2024-01-09T23:05:59.476Z,95.34
2024-01-09T23:09:01.154Z,95.28
2024-01-09T23:12:02.942Z,95.66
2024-01-09T23:15:05.094Z,95.68
2024-01-09T23:18:07.375Z,95.57
2024-01-09T23:21:09.244Z,95.88
2024-01-09T23:24:11.012Z,96.12
2024-01-09T23:27:12.737Z,95.92
2024-01-09T23:30:14.754Z,95.75
2024-01-09T23:33:16.571Z,95.83
2024-01-09T23:36:18.449Z,96.44
2024-01-09T23:39:20.112Z,96.34
2024-01-09T23:42:21.809Z,96.24
2024-01-09T23:45:23.551Z,96.74
2024-01-09T23:48:25.697Z,96.66
2024-01-09T23:51:27.721Z,96.43
2024-01-09T23:54:29.532Z,96.60
2024-01-09T23:57:31.241Z,96.59
